^^
Lisbon, NH - Weather Station Historical Data
Daily Summary for August 10, 2021 Units:  English    Metric   Both
Daily Weekly Monthly Yearly
  High: Low: Average:
Temperature: 83.6 °F 62.7 °F 73.4 °F
Dew Point: 70.7 °F 62.7 °F 67.7 °F
Humidity: 100% 63.6% 84%
Wind Speed: 4.1mph 0mph 1mph
Wind Gust: 13mph - -
Wind- - SSW
Pressure: 30.14 in 29.95 in -
Precipitation: 0.00 in    
 
 
Tabular Data for August 10, 2021
Time Temperature Dew Point Pressure Wind Wind Speed Wind Gust Humidity Rainfall Rate (Hourly) solar
00:04 66.5 °F 65.9 °F 30.12 in Calm     98% 0.00 in 0 W/m2
00:09 66.4 °F 65.8 °F 30.12 in Calm     98% 0.00 in 0 W/m2
00:14 66.3 °F 65.7 °F 30.13 in Calm     98% 0.00 in 0 W/m2
00:19 66.3 °F 65.7 °F 30.13 in Calm     98% 0.00 in 0 W/m2
00:24 66.1 °F 65.8 °F 30.13 in Calm     98.8% 0.00 in 0 W/m2
00:29 66 °F 65.7 °F 30.14 in Calm     99% 0.00 in 0 W/m2
00:34 66 °F 65.7 °F 30.14 in Calm     99% 0.00 in 0 W/m2
00:39 65.9 °F 65.6 °F 30.14 in Calm     99% 0.00 in 0 W/m2
00:44 65.8 °F 65.5 °F 30.14 in Calm     99% 0.00 in 0 W/m2
00:49 65.6 °F 65.3 °F 30.14 in Calm     99% 0.00 in 0 W/m2
00:54 65.6 °F 65.4 °F 30.14 in Calm     99.3% 0.00 in 0 W/m2
00:59 65.5 °F 65.5 °F 30.14 in Calm     100% 0.00 in 0 W/m2
01:04 65.4 °F 65.4 °F 30.14 in Calm     100% 0.00 in 0 W/m2
01:09 65.3 °F 65.3 °F 30.14 in Calm     100% 0.00 in 0 W/m2
01:14 65.3 °F 65.3 °F 30.14 in Calm     100% 0.00 in 0 W/m2
01:19 65.2 °F 65.2 °F 30.13 in Calm     100% 0.00 in 0 W/m2
01:24 65.2 °F 65.2 °F 30.13 in Calm     100% 0.00 in 0 W/m2
01:29 65.1 °F 65.1 °F 30.13 in Calm     100% 0.00 in 0 W/m2
01:34 65 °F 65 °F 30.13 in Calm   1 mph 100% 0.00 in 0 W/m2
01:39 64.9 °F 64.9 °F 30.13 in Calm     100% 0.00 in 0 W/m2
01:44 64.7 °F 64.7 °F 30.13 in Calm     100% 0.00 in 0 W/m2
01:49 64.7 °F 64.7 °F 30.13 in Calm     100% 0.00 in 0 W/m2
01:54 64.5 °F 64.5 °F 30.13 in Calm     100% 0.00 in 0 W/m2
01:59 64.4 °F 64.4 °F 30.13 in Calm     100% 0.00 in 0 W/m2
02:04 64.3 °F 64.3 °F 30.12 in Calm     100% 0.00 in 0 W/m2
02:09 64.3 °F 64.3 °F 30.12 in Calm     100% 0.00 in 0 W/m2
02:14 64.2 °F 64.2 °F 30.12 in Calm     100% 0.00 in 0 W/m2
02:19 64.1 °F 64.1 °F 30.12 in Calm     100% 0.00 in 0 W/m2
02:24 64 °F 64 °F 30.12 in Calm   1 mph 100% 0.00 in 0 W/m2
02:29 63.9 °F 63.9 °F 30.12 in Calm   1 mph 100% 0.00 in 0 W/m2
02:34 63.9 °F 63.9 °F 30.12 in NE 0.1 mph 1 mph 100% 0.00 in 0 W/m2
02:39 63.9 °F 63.9 °F 30.12 in Calm   1 mph 100% 0.00 in 0 W/m2
02:44 63.7 °F 63.7 °F 30.12 in Calm     100% 0.00 in 0 W/m2
02:49 63.7 °F 63.7 °F 30.12 in Calm     100% 0.00 in 0 W/m2
02:54 63.7 °F 63.7 °F 30.12 in Calm     100% 0.00 in 0 W/m2
02:59 63.7 °F 63.7 °F 30.12 in Calm     100% 0.00 in 0 W/m2
03:04 63.5 °F 63.5 °F 30.12 in Calm     100% 0.00 in 0 W/m2
03:09 63.5 °F 63.5 °F 30.12 in Calm     100% 0.00 in 0 W/m2
03:14 63.5 °F 63.5 °F 30.13 in Calm     100% 0.00 in 0 W/m2
03:19 63.4 °F 63.4 °F 30.13 in Calm     100% 0.00 in 0 W/m2
03:24 63.4 °F 63.4 °F 30.13 in Calm     100% 0.00 in 0 W/m2
03:29 63.4 °F 63.4 °F 30.13 in Calm     100% 0.00 in 0 W/m2
03:34 63.2 °F 63.2 °F 30.13 in Calm     100% 0.00 in 0 W/m2
03:39 63.2 °F 63.2 °F 30.13 in Calm     100% 0.00 in 0 W/m2
03:44 63.2 °F 63.2 °F 30.13 in Calm     100% 0.00 in 0 W/m2
03:49 63.2 °F 63.2 °F 30.13 in NE 0.2 mph 1 mph 100% 0.00 in 0 W/m2
03:54 63.2 °F 63.2 °F 30.13 in Calm   1 mph 100% 0.00 in 0 W/m2
03:59 63.1 °F 63.1 °F 30.13 in Calm     100% 0.00 in 0 W/m2
04:04 63.1 °F 63.1 °F 30.13 in NE 0.1 mph 1 mph 100% 0.00 in 0 W/m2
04:09 63.3 °F 63.3 °F 30.13 in NE 0.5 mph 1 mph 100% 0.00 in 0 W/m2
04:14 63.3 °F 63.3 °F 30.13 in Calm   1 mph 100% 0.00 in 0 W/m2
04:19 63.2 °F 63.2 °F 30.13 in Calm     100% 0.00 in 0 W/m2
04:24 63.2 °F 63.2 °F 30.13 in NE 0.7 mph 2 mph 100% 0.00 in 0 W/m2
04:29 63.1 °F 63.1 °F 30.13 in ENE 1 mph 2 mph 100% 0.00 in 0 W/m2
04:34 63.1 °F 63.1 °F 30.13 in ENE 0.4 mph 2 mph 100% 0.00 in 0 W/m2
04:39 62.9 °F 62.9 °F 30.13 in ENE 1.3 mph 3 mph 100% 0.00 in 0 W/m2
04:44 62.9 °F 62.9 °F 30.13 in ENE 0.9 mph 3 mph 100% 0.00 in 0 W/m2
04:49 62.8 °F 62.8 °F 30.13 in NE 0.4 mph 2 mph 100% 0.00 in 0 W/m2
04:54 62.7 °F 62.7 °F 30.13 in ENE 0.7 mph 2 mph 100% 0.00 in 0 W/m2
04:59 62.7 °F 62.7 °F 30.13 in Calm   2 mph 100% 0.00 in 0 W/m2
05:04 62.7 °F 62.7 °F 30.13 in Calm   1 mph 100% 0.00 in 0 W/m2
05:09 62.7 °F 62.7 °F 30.13 in ENE 1 mph 3 mph 100% 0.00 in 0 W/m2
05:14 62.9 °F 62.9 °F 30.13 in NE 0.4 mph 2 mph 100% 0.00 in 0 W/m2
05:19 62.9 °F 62.9 °F 30.13 in ENE 0.6 mph 2 mph 100% 0.00 in 0 W/m2
05:24 62.8 °F 62.8 °F 30.13 in NE 0.3 mph 2 mph 100% 0.00 in 0 W/m2
05:29 62.7 °F 62.7 °F 30.13 in NNE 0.2 mph 2 mph 100% 0.00 in 0 W/m2
05:34 62.7 °F 62.7 °F 30.13 in Calm     100% 0.00 in 0 W/m2
05:39 62.7 °F 62.7 °F 30.13 in NNE 0.1 mph 1 mph 100% 0.00 in 0 W/m2
05:44 62.7 °F 62.7 °F 30.13 in Calm   1 mph 100% 0.00 in 5 W/m2
05:49 62.7 °F 62.7 °F 30.13 in Calm     100% 0.00 in 7 W/m2
05:54 62.7 °F 62.7 °F 30.13 in Calm     100% 0.00 in 7 W/m2
05:59 62.7 °F 62.7 °F 30.13 in Calm     100% 0.00 in 11 W/m2
06:04 62.7 °F 62.7 °F 30.13 in NE 0.4 mph 2 mph 100% 0.00 in 12 W/m2
06:09 62.8 °F 62.8 °F 30.13 in Calm   2 mph 100% 0.00 in 16 W/m2
06:14 62.9 °F 62.9 °F 30.13 in Calm     100% 0.00 in 18 W/m2
06:19 63.1 °F 63.1 °F 30.13 in East 0.6 mph 2 mph 100% 0.00 in 18 W/m2
06:24 63.1 °F 63.1 °F 30.13 in East 0.7 mph 2 mph 100% 0.00 in 25 W/m2
06:29 63.1 °F 63.1 °F 30.13 in Calm   1 mph 100% 0.00 in 25 W/m2
06:34 63.1 °F 63.1 °F 30.13 in Calm     100% 0.00 in 33 W/m2
06:39 63.2 °F 63.2 °F 30.13 in Calm     100% 0.00 in 33 W/m2
06:44 63.3 °F 63.3 °F 30.13 in Calm   1 mph 100% 0.00 in 39 W/m2
06:49 63.6 °F 63.6 °F 30.13 in Calm   1 mph 100% 0.00 in 42 W/m2
06:54 63.9 °F 63.9 °F 30.13 in Calm     100% 0.00 in 53 W/m2
06:59 64 °F 64 °F 30.13 in East 0.1 mph 1 mph 100% 0.00 in 51 W/m2
07:04 64 °F 64 °F 30.12 in East 0.3 mph 1 mph 100% 0.00 in 62 W/m2
07:09 64.2 °F 64.2 °F 30.12 in Calm     100% 0.00 in 62 W/m2
07:14 64.2 °F 64.2 °F 30.13 in Calm     100% 0.00 in 69 W/m2
07:19 64.2 °F 64.2 °F 30.13 in Calm     100% 0.00 in 84 W/m2
07:24 64.4 °F 64.4 °F 30.13 in East 0.1 mph 1 mph 100% 0.00 in 90 W/m2
07:29 64.5 °F 64.5 °F 30.13 in East 0.2 mph 1 mph 100% 0.00 in 111 W/m2
07:34 64.5 °F 64.5 °F 30.13 in ENE 0.6 mph 2 mph 100% 0.00 in 120 W/m2
07:39 64.7 °F 64.7 °F 30.13 in NE 0.9 mph 2 mph 100% 0.00 in 130 W/m2
07:44 64.8 °F 64.8 °F 30.13 in ENE 0.7 mph 3 mph 100% 0.00 in 132 W/m2
07:49 65 °F 65 °F 30.12 in NE 1.2 mph 3 mph 100% 0.00 in 143 W/m2
07:54 65.1 °F 65.1 °F 30.12 in ENE 1.9 mph 3 mph 100% 0.00 in 164 W/m2
07:59 65.4 °F 65.4 °F 30.12 in ENE 1.5 mph 3 mph 100% 0.00 in 201 W/m2
08:04 65.6 °F 65.6 °F 30.12 in ENE 2.4 mph 5 mph 100% 0.00 in 202 W/m2
08:09 66 °F 66 °F 30.12 in ENE 2.2 mph 5 mph 100% 0.00 in 384 W/m2
08:14 66.4 °F 66.4 °F 30.13 in ENE 2.1 mph 3 mph 100% 0.00 in 384 W/m2
08:19 66.6 °F 66.6 °F 30.13 in ENE 2.3 mph 4 mph 100% 0.00 in 282 W/m2
08:24 66.8 °F 66.8 °F 30.13 in NE 1.1 mph 4 mph 100% 0.00 in 283 W/m2
08:29 67 °F 67 °F 30.13 in ENE 0.6 mph 2 mph 100% 0.00 in 355 W/m2
08:34 67.5 °F 67.5 °F 30.12 in NE 1.8 mph 5 mph 100% 0.00 in 560 W/m2
08:39 68.2 °F 68 °F 30.12 in ENE 1.5 mph 5 mph 99.3% 0.00 in 560 W/m2
08:44 68.9 °F 68.3 °F 30.12 in ENE 1.5 mph 3 mph 97.7% 0.00 in 521 W/m2
08:49 69.2 °F 68.1 °F 30.12 in ENE 1.5 mph 4 mph 96% 0.00 in 498 W/m2
08:54 69.6 °F 67.5 °F 30.12 in ENE 1.6 mph 4 mph 93.2% 0.00 in 501 W/m2
08:59 70.2 °F 67.5 °F 30.12 in ENE 1.9 mph 4 mph 91.2% 0.00 in 519 W/m2
09:04 70.7 °F 67.2 °F 30.11 in ENE 1.8 mph 3 mph 88.8% 0.00 in 535 W/m2
09:09 71.4 °F 67.4 °F 30.11 in NE 1.5 mph 3 mph 87.4% 0.00 in 551 W/m2
09:14 72.1 °F 67.4 °F 30.11 in ENE 1.4 mph 3 mph 85.3% 0.00 in 568 W/m2
09:19 72.7 °F 67.6 °F 30.11 in NE 1.4 mph 3 mph 84.1% 0.00 in 600 W/m2
09:24 73.4 °F 67.4 °F 30.11 in ENE 1 mph 3 mph 81.5% 0.00 in 628 W/m2
09:29 73.8 °F 67.6 °F 30.11 in ENE 0.9 mph 2 mph 80.9% 0.00 in 669 W/m2
09:34 74.2 °F 67.6 °F 30.11 in East 0.7 mph 2 mph 80% 0.00 in 669 W/m2
09:39 74.6 °F 67.9 °F 30.11 in SE 0.6 mph 2 mph 79.6% 0.00 in 699 W/m2
09:44 75.2 °F 68.4 °F 30.11 in SE 1.3 mph 6 mph 79.7% 0.00 in 699 W/m2
09:49 75.7 °F 68.7 °F 30.11 in SW 2 mph 7 mph 79.1% 0.00 in 737 W/m2
09:54 76.1 °F 68.8 °F 30.11 in SW 3.2 mph 7 mph 78.2% 0.00 in 885 W/m2
09:59 76.7 °F 69.6 °F 30.11 in NW 0.6 mph 7 mph 78.7% 0.00 in 885 W/m2
10:04 77.5 °F 69.9 °F 30.10 in WSW 0.7 mph 3 mph 77.5% 0.00 in 855 W/m2
10:09 78 °F 69.5 °F 30.10 in West 1.7 mph 8 mph 75.3% 0.00 in 709 W/m2
10:14 77.9 °F 69.2 °F 30.10 in SW 1.9 mph 7 mph 74.7% 0.00 in 839 W/m2
10:19 78 °F 69.6 °F 30.10 in SW 1 mph 10 mph 75.5% 0.00 in 839 W/m2
10:24 78.1 °F 69.4 °F 30.10 in WSW 1.9 mph 9 mph 74.7% 0.00 in 595 W/m2
10:29 78 °F 69.5 °F 30.10 in WSW 1.9 mph 10 mph 75.1% 0.00 in 595 W/m2
10:34 77.9 °F 69.6 °F 30.10 in SW 1.2 mph 10 mph 75.6% 0.00 in 595 W/m2
10:39 78.1 °F 69.7 °F 30.10 in SW 2 mph 8 mph 75.5% 0.00 in 461 W/m2
10:44 78.2 °F 69.4 °F 30.10 in South 1.1 mph 5 mph 74.3% 0.00 in 781 W/m2
10:49 78.2 °F 69.1 °F 30.10 in SSW 3.2 mph 10 mph 73.6% 0.00 in 429 W/m2
10:54 78.3 °F 69.9 °F 30.10 in WSW 1.7 mph 7 mph 75.6% 0.00 in 866 W/m2
10:59 78.5 °F 69.4 °F 30.10 in SSW 1.7 mph 7 mph 73.7% 0.00 in 869 W/m2
11:04 78.6 °F 69.6 °F 30.10 in SSW 2.1 mph 6 mph 73.8% 0.00 in 846 W/m2
11:09 78.5 °F 69.4 °F 30.10 in SW 3.5 mph 11 mph 73.7% 0.00 in 860 W/m2
11:14 78.8 °F 69.9 °F 30.10 in WSW 1.5 mph 5 mph 74.3% 0.00 in 883 W/m2
11:19 79.2 °F 69.7 °F 30.09 in West 1.5 mph 8 mph 72.7% 0.00 in 883 W/m2
11:24 79.1 °F 70 °F 30.09 in NNW 1.4 mph 6 mph 73.7% 0.00 in 866 W/m2
11:29 79 °F 69.9 °F 30.09 in NW 0.9 mph 6 mph 73.6% 0.00 in 862 W/m2
11:34 79.5 °F 69.7 °F 30.09 in NW 1 mph 3 mph 72.1% 0.00 in 866 W/m2
11:39 79.8 °F 69.6 °F 30.09 in WNW 1.1 mph 7 mph 71% 0.00 in 892 W/m2
11:44 79.9 °F 69.8 °F 30.09 in WNW 1.2 mph 7 mph 71.5% 0.00 in 860 W/m2
11:49 80 °F 70 °F 30.09 in SW 1.9 mph 11 mph 71.5% 0.00 in 871 W/m2
11:54 80.1 °F 69.7 °F 30.09 in WSW 1.9 mph 11 mph 70.7% 0.00 in 878 W/m2
11:59 80.2 °F 69.8 °F 30.09 in NW 1.2 mph 6 mph 70.8% 0.00 in 880 W/m2
12:04 80.6 °F 70.1 °F 30.08 in West 1.3 mph 5 mph 70.6% 0.00 in 876 W/m2
12:09 80.9 °F 69.7 °F 30.08 in SW 4.1 mph 9 mph 68.8% 0.00 in 869 W/m2
12:14 80.9 °F 69.4 °F 30.08 in SW 2.9 mph 9 mph 68.1% 0.00 in 867 W/m2
12:19 81 °F 70.1 °F 30.08 in SSW 1.9 mph 7 mph 69.4% 0.00 in 892 W/m2
12:24 81.4 °F 70.7 °F 30.08 in WSW 1 mph 3 mph 70% 0.00 in 880 W/m2
12:29 81.7 °F 70.6 °F 30.08 in SSW 2 mph 6 mph 69.2% 0.00 in 899 W/m2
12:34 81.8 °F 70.7 °F 30.07 in WSW 1.9 mph 10 mph 69% 0.00 in 926 W/m2
12:39 81.8 °F 70.5 °F 30.07 in WNW 1 mph 7 mph 68.6% 0.00 in 871 W/m2
12:44 81.7 °F 70.7 °F 30.07 in SW 2.1 mph 7 mph 69.3% 0.00 in 871 W/m2
12:49 82 °F 70.7 °F 30.06 in WSW 1.3 mph 6 mph 68.8% 0.00 in 866 W/m2
12:54 82 °F 70.7 °F 30.06 in WSW 1.6 mph 6 mph 68.8% 0.00 in 860 W/m2
12:59 82 °F 70.6 °F 30.06 in NW 0.8 mph 3 mph 68.5% 0.00 in 860 W/m2
13:04 81.9 °F 70.6 °F 30.05 in WSW 1.2 mph 5 mph 68.9% 0.00 in 860 W/m2
13:09 81.9 °F 70.3 °F 30.05 in SW 1.3 mph 6 mph 68% 0.00 in 864 W/m2
13:14 82.1 °F 70.2 °F 30.05 in SW 1.7 mph 6 mph 67.2% 0.00 in 860 W/m2
13:19 82.3 °F 70.1 °F 30.05 in West 2.8 mph 9 mph 66.5% 0.00 in 859 W/m2
13:24 82.2 °F 69.7 °F 30.05 in SW 2.7 mph 9 mph 66% 0.00 in 869 W/m2
13:29 82.4 °F 70.2 °F 30.05 in SW 2.1 mph 6 mph 66.8% 0.00 in 850 W/m2
13:34 82.7 °F 70.4 °F 30.04 in SW 2.2 mph 8 mph 66.3% 0.00 in 850 W/m2
13:39 82.8 °F 70.3 °F 30.04 in SW 1.5 mph 8 mph 66% 0.00 in 848 W/m2
13:44 82.8 °F 70.7 °F 30.04 in WSW 1.4 mph 5 mph 66.8% 0.00 in 848 W/m2
13:49 82.8 °F 70.3 °F 30.03 in WSW 1.9 mph 7 mph 66.1% 0.00 in 829 W/m2
13:54 82.7 °F 70.2 °F 30.03 in SW 2 mph 8 mph 66% 0.00 in 823 W/m2
13:59 82.6 °F 70.1 °F 30.03 in WNW 0.8 mph 2 mph 66% 0.00 in 816 W/m2
14:04 82.8 °F 70.4 °F 30.02 in SW 1.1 mph 5 mph 66.3% 0.00 in 808 W/m2
14:09 83.1 °F 70.4 °F 30.02 in SSW 1.3 mph 5 mph 65.5% 0.00 in 801 W/m2
14:14 83.4 °F 70.1 °F 30.02 in SW 1.4 mph 5 mph 64.3% 0.00 in 790 W/m2
14:19 83.6 °F 70.2 °F 30.02 in SW 1.1 mph 8 mph 64.1% 0.00 in 769 W/m2
14:24 83.5 °F 69.8 °F 30.02 in WSW 2.3 mph 8 mph 63.6% 0.00 in 769 W/m2
14:29 83.4 °F 70.5 °F 30.02 in WSW 1.7 mph 8 mph 65.2% 0.00 in 296 W/m2
14:34 83.4 °F 70.7 °F 30.01 in SW 1.8 mph 8 mph 65.5% 0.00 in 296 W/m2
14:39 83.4 °F 70.7 °F 30.01 in WSW 1.8 mph 7 mph 65.6% 0.00 in 169 W/m2
14:44 83.3 °F 70.7 °F 30.01 in WSW 0.9 mph 7 mph 65.9% 0.00 in 336 W/m2
14:49 83 °F 69.6 °F 30.00 in SW 2.6 mph 8 mph 64.2% 0.00 in 215 W/m2
14:54 82.8 °F 69.9 °F 30.00 in WSW 1.9 mph 5 mph 65.2% 0.00 in 178 W/m2
14:59 82.6 °F 69.4 °F 30.00 in SW 2.7 mph 7 mph 64.3% 0.00 in 178 W/m2
15:04 82.6 °F 70 °F 30.00 in WSW 1.4 mph 7 mph 65.7% 0.00 in 204 W/m2
15:09 82.5 °F 70.4 °F 30.00 in WSW 1.3 mph 5 mph 66.9% 0.00 in 139 W/m2
15:14 82.3 °F 70.5 °F 30.00 in NW 0.7 mph 2 mph 67.4% 0.00 in 139 W/m2
15:19 82.1 °F 70.2 °F 29.99 in WNW 1 mph 4 mph 67.1% 0.00 in 111 W/m2
15:24 82 °F 70.3 °F 29.99 in WNW 0.8 mph 2 mph 67.8% 0.00 in 79 W/m2
15:29 82.1 °F 70.5 °F 29.99 in WSW 0.6 mph 4 mph 68% 0.00 in 76 W/m2
15:34 82.2 °F 70.2 °F 29.98 in SW 1.7 mph 6 mph 67.1% 0.00 in 120 W/m2
15:39 82.2 °F 70.3 °F 29.98 in WSW 1 mph 4 mph 67.2% 0.00 in 91 W/m2
15:44 82.2 °F 70.1 °F 29.98 in West 1.4 mph 5 mph 66.9% 0.00 in 114 W/m2
15:49 82.2 °F 70.7 °F 29.98 in WSW 0.8 mph 5 mph 68.3% 0.00 in 118 W/m2
15:54 82.2 °F 70.3 °F 29.98 in WSW 1.2 mph 3 mph 67.4% 0.00 in 100 W/m2
15:59 82.4 °F 70.5 °F 29.98 in WNW 1.4 mph 5 mph 67.4% 0.00 in 97 W/m2
16:04 82.3 °F 70.3 °F 29.98 in WNW 0.9 mph 3 mph 67% 0.00 in 97 W/m2
16:09 82.3 °F 69.8 °F 29.98 in SW 1.4 mph 5 mph 66% 0.00 in 79 W/m2
16:14 82.1 °F 69.3 °F 29.98 in WSW 3.5 mph 10 mph 65.2% 0.00 in 109 W/m2
16:19 82 °F 69.5 °F 29.97 in WSW 1.2 mph 6 mph 66% 0.00 in 67 W/m2
16:24 82.1 °F 70.2 °F 29.97 in NNW 0.3 mph 3 mph 67.5% 0.00 in 63 W/m2
16:29 82.2 °F 70.3 °F 29.97 in West 0.6 mph 2 mph 67.2% 0.00 in 63 W/m2
16:34 82.2 °F 69.8 °F 29.97 in West 1.5 mph 3 mph 66.2% 0.00 in 81 W/m2
16:39 82.4 °F 69.9 °F 29.97 in West 1.2 mph 4 mph 66% 0.00 in 150 W/m2
16:44 82.5 °F 69.6 °F 29.97 in NW 1.2 mph 4 mph 65.2% 0.00 in 150 W/m2
16:49 82.5 °F 69.9 °F 29.96 in WNW 1 mph 2 mph 65.9% 0.00 in 65 W/m2
16:54 82.4 °F 69.7 °F 29.96 in WSW 1.6 mph 8 mph 65.5% 0.00 in 60 W/m2
16:59 82.2 °F 69.2 °F 29.96 in WNW 0.8 mph 8 mph 64.8% 0.00 in 60 W/m2
17:04 82.2 °F 69.7 °F 29.96 in WSW 1.4 mph 5 mph 66% 0.00 in 60 W/m2
17:09 82 °F 69 °F 29.96 in SW 1.7 mph 10 mph 64.8% 0.00 in 62 W/m2
17:14 82 °F 69.2 °F 29.97 in WSW 1 mph 5 mph 65.2% 0.00 in 58 W/m2
17:19 82 °F 69.5 °F 29.97 in SW 2.7 mph 11 mph 66% 0.00 in 56 W/m2
17:24 81.8 °F 69.6 °F 29.97 in West 2.3 mph 10 mph 66.6% 0.00 in 63 W/m2
17:29 81.6 °F 69.3 °F 29.97 in WSW 3.9 mph 11 mph 66.3% 0.00 in 77 W/m2
17:34 81.6 °F 69.2 °F 29.97 in WSW 3.2 mph 12 mph 66.1% 0.00 in 77 W/m2
17:39 81.6 °F 69.7 °F 29.97 in WSW 3.3 mph 11 mph 67.1% 0.00 in 70 W/m2
17:44 81.4 °F 69.1 °F 29.97 in WSW 3 mph 13 mph 66.4% 0.00 in 62 W/m2
17:49 81.4 °F 69.8 °F 29.96 in West 1.6 mph 5 mph 67.8% 0.00 in 67 W/m2
17:54 81.4 °F 69.7 °F 29.96 in WSW 2.4 mph 7 mph 67.7% 0.00 in 63 W/m2
17:59 81.3 °F 69.8 °F 29.96 in West 0.7 mph 6 mph 68.2% 0.00 in 56 W/m2
18:04 81.3 °F 69.8 °F 29.96 in WSW 1 mph 3 mph 68.3% 0.00 in 49 W/m2
18:09 81.4 °F 70.4 °F 29.96 in West 1.6 mph 6 mph 69.4% 0.00 in 53 W/m2
18:14 81.2 °F 69.5 °F 29.96 in SSW 1.2 mph 3 mph 67.7% 0.00 in 51 W/m2
18:19 81.2 °F 69.6 °F 29.96 in SSW 2.7 mph 7 mph 68% 0.00 in 40 W/m2
18:24 81.2 °F 69.7 °F 29.96 in SSW 3.1 mph 7 mph 68% 0.00 in 35 W/m2
18:29 81.2 °F 69.6 °F 29.96 in WSW 2.6 mph 7 mph 68% 0.00 in 35 W/m2
18:34 81.1 °F 69.6 °F 29.96 in SW 3 mph 8 mph 68.3% 0.00 in 28 W/m2
18:39 80.8 °F 69.6 °F 29.96 in SSW 3.1 mph 8 mph 68.8% 0.00 in 25 W/m2
18:44 80.6 °F 69.7 °F 29.96 in SSW 1.9 mph 6 mph 69.5% 0.00 in 16 W/m2
18:49 80.3 °F 69.8 °F 29.95 in SSE 1.2 mph 5 mph 70.5% 0.00 in 16 W/m2
18:54 80 °F 69.8 °F 29.95 in South 0.9 mph 3 mph 71% 0.00 in 16 W/m2
18:59 79.8 °F 69.7 °F 29.96 in SW 1 mph 4 mph 71.3% 0.00 in 14 W/m2
19:04 79.5 °F 69.7 °F 29.96 in South 1.9 mph 5 mph 72% 0.00 in 18 W/m2
19:09 79.4 °F 69.6 °F 29.96 in WSW 1 mph 5 mph 72.1% 0.00 in 19 W/m2
19:14 78.9 °F 69.5 °F 29.96 in SSW 2.4 mph 8 mph 73% 0.00 in 19 W/m2
19:19 78.7 °F 69.7 °F 29.96 in WNW 1.1 mph 5 mph 74% 0.00 in 21 W/m2
19:24 78.4 °F 69.8 °F 29.96 in West 1.3 mph 7 mph 75% 0.00 in 21 W/m2
19:29 78.1 °F 69.7 °F 29.96 in SW 1.4 mph 5 mph 75.5% 0.00 in 21 W/m2
19:34 77.9 °F 69.7 °F 29.96 in NNW 0.3 mph 5 mph 76% 0.00 in 21 W/m2
19:39 77.7 °F 69.5 °F 29.96 in NNE 1.2 mph 4 mph 76% 0.00 in 19 W/m2
19:44 77.6 °F 69.6 °F 29.96 in SSW 1.3 mph 5 mph 76.6% 0.00 in 18 W/m2
19:49 77.4 °F 69.7 °F 29.96 in WNW 0.8 mph 3 mph 77.3% 0.00 in 16 W/m2
19:54 77.1 °F 69.8 °F 29.96 in NNW 0.3 mph 2 mph 78% 0.00 in 12 W/m2
19:59 76.9 °F 69.9 °F 29.96 in West 0.3 mph 2 mph 79% 0.00 in 5 W/m2
20:04 76.7 °F 69.8 °F 29.96 in West 0.2 mph 1 mph 79.3% 0.00 in 0 W/m2
20:09 76.5 °F 69.8 °F 29.96 in SW 0.3 mph 2 mph 80% 0.00 in 0 W/m2
20:14 76.2 °F 69.6 °F 29.96 in SSW 2.2 mph 5 mph 80% 0.00 in 0 W/m2
20:19 76.1 °F 69.5 °F 29.95 in SW 1.6 mph 5 mph 80% 0.00 in 0 W/m2
20:24 76 °F 69.4 °F 29.95 in SW 2.9 mph 7 mph 80% 0.00 in 0 W/m2
20:29 76 °F 69.4 °F 29.95 in SSW 1.6 mph 6 mph 80% 0.00 in 0 W/m2
20:34 75.9 °F 69.4 °F 29.95 in West 0.6 mph 3 mph 80.3% 0.00 in 0 W/m2
20:39 75.8 °F 69.6 °F 29.95 in WNW 0.4 mph 2 mph 81% 0.00 in 0 W/m2
20:44 75.6 °F 69.4 °F 29.95 in WSW 1.3 mph 4 mph 81% 0.00 in 0 W/m2
20:49 75.4 °F 69.2 °F 29.95 in SSW 1.7 mph 7 mph 81% 0.00 in 0 W/m2
20:54 75.4 °F 69.5 °F 29.95 in SW 1 mph 7 mph 81.9% 0.00 in 0 W/m2
20:59 75.3 °F 69.6 °F 29.96 in West 0.7 mph 2 mph 82.3% 0.00 in 0 W/m2
21:04 75.2 °F 69.7 °F 29.96 in WNW 0.2 mph 2 mph 83.2% 0.00 in 0 W/m2
21:09 74.9 °F 69.7 °F 29.96 in NW 0.3 mph 2 mph 84% 0.00 in 0 W/m2
21:14 74.7 °F 69.6 °F 29.96 in SW 0.4 mph 3 mph 84% 0.00 in 0 W/m2
21:19 74.6 °F 69.8 °F 29.96 in West 0.1 mph 1 mph 84.8% 0.00 in 0 W/m2
21:24 74.6 °F 69.8 °F 29.96 in WSW 0.1 mph 2 mph 85% 0.00 in 0 W/m2
21:29 74.4 °F 69.9 °F 29.97 in WSW 0.9 mph 6 mph 85.9% 0.00 in 0 W/m2
21:34 74.4 °F 69.9 °F 29.97 in West 0.2 mph 6 mph 86% 0.00 in 0 W/m2
21:39 74.3 °F 69.9 °F 29.97 in NW 0.2 mph 2 mph 86% 0.00 in 0 W/m2
21:44 74.2 °F 69.8 °F 29.97 in WNW 0.3 mph 2 mph 86% 0.00 in 0 W/m2
21:49 74.1 °F 69.7 °F 29.97 in West 0.8 mph 6 mph 86% 0.00 in 0 W/m2
21:54 74.1 °F 69.6 °F 29.97 in SW 0.9 mph 6 mph 86% 0.00 in 0 W/m2
21:59 74.2 °F 69.8 °F 29.97 in SW 1 mph 5 mph 86% 0.00 in 0 W/m2
22:04 74.4 °F 69.9 °F 29.97 in West 0.5 mph 5 mph 86% 0.00 in 0 W/m2
22:09 74.5 °F 69.8 °F 29.97 in West 1.2 mph 3 mph 85.4% 0.00 in 0 W/m2
22:14 74.6 °F 69.8 °F 29.97 in WSW 0.4 mph 2 mph 85% 0.00 in 0 W/m2
22:19 74.7 °F 69.9 °F 29.97 in West 0.5 mph 3 mph 85% 0.00 in 0 W/m2
22:24 74.7 °F 69.9 °F 29.97 in WSW 1.5 mph 7 mph 85% 0.00 in 0 W/m2
22:29 74.7 °F 69.9 °F 29.97 in WSW 1.7 mph 7 mph 85% 0.00 in 0 W/m2
22:34 74.7 °F 69.9 °F 29.96 in SSW 1.4 mph 3 mph 85% 0.00 in 0 W/m2
22:39 74.9 °F 70 °F 29.96 in South 0.9 mph 5 mph 84.9% 0.00 in 0 W/m2
22:44 74.9 °F 69.8 °F 29.97 in SW 0.5 mph 3 mph 84% 0.00 in 0 W/m2
22:49 75.1 °F 70.2 °F 29.97 in Calm   2 mph 84.6% 0.00 in 0 W/m2
22:54 75.1 °F 70.3 °F 29.97 in Calm     85% 0.00 in 0 W/m2
22:59 74.9 °F 70.4 °F 29.97 in Calm   1 mph 85.8% 0.00 in 0 W/m2
23:04 74.8 °F 70.3 °F 29.96 in Calm   1 mph 86% 0.00 in 0 W/m2
23:09 74.6 °F 70.3 °F 29.96 in SSE 0.3 mph 2 mph 86.5% 0.00 in 0 W/m2
23:14 74.4 °F 70.3 °F 29.96 in Calm   2 mph 87% 0.00 in 0 W/m2
23:19 74.4 °F 70.3 °F 29.96 in Calm     87% 0.00 in 0 W/m2
23:24 74.4 °F 70.3 °F 29.96 in Calm     87% 0.00 in 0 W/m2
23:29 74.3 °F 70.5 °F 29.96 in Calm     88% 0.00 in 0 W/m2
23:34 74.2 °F 70.4 °F 29.95 in Calm   1 mph 88% 0.00 in 0 W/m2
23:39 74 °F 70.5 °F 29.95 in Calm   1 mph 88.8% 0.00 in 0 W/m2
23:44 73.9 °F 70.5 °F 29.96 in Calm   1 mph 89% 0.00 in 0 W/m2
23:49 73.7 °F 70.4 °F 29.96 in Calm     89.3% 0.00 in 0 W/m2
23:54 73.7 °F 70.6 °F 29.96 in SSE 0.1 mph 1 mph 90% 0.00 in 0 W/m2
23:59 73.7 °F 70.6 °F 29.96 in SSE 0.2 mph 2 mph 90% 0.00 in 0 W/m2
Lisbon, New Hampshire, USA
Compliments of Weather Underground - 4 mb